Dutchtown, Missouri
Current Conditions -  °F | °C
As of 4:53 PM on Monday 22 Dec 2014 (Local Time) from KCGI Reporting Station
Light Rain Light Rain  
Wind Chill: 11°   Ceiling: 700
Heat Index: 11°   Visibility: 4mi
Dew Point: 11°   Wind: 9mph
Humidity: 97%   Direction: 180°S
Pressure: 29.59"   Gusts: NA
Location:  37.25°N, 89.66°W
Report Text: KCGI 222253Z 18008KT 4SM -RA BR OVC007 11/11 A2959 RMK AO2 RAE2154B38 SLP019 P0002 T01110106
Loading
Personal Weather Stations






























Interactive Weather Map New forecast layout! Learn more

10-Day Weather Forecast

Advertisements
Track Severe Weather on mobile